Time;durP1;ratioP1;P1;durP2;ratioP2;P2;SDS_P1;SDS_P2;PMS_P1;PMS_P2;Temp;Humidity;BMP_temperature;BMP_pressure;BME280_temperature;BME280_humidity;BME280_pressure;Samples;Min_cycle;Max_cycle;Signal;HPM_P1;HPM_P2
2022/12/04 00:01:58;;;;;;;9.53;8.93;;;19.60;53.60;;;;;;5031654;28;20532;-49
2022/12/04 00:04:24;;;;;;;8.37;7.87;;;19.60;53.60;;;;;;5031810;28;20437;-50
2022/12/04 00:06:54;;;;;;;9.50;8.80;;;19.50;53.60;;;;;;5031711;28;20870;-50
2022/12/04 00:09:22;;;;;;;10.10;9.40;;;19.50;53.60;;;;;;5031221;28;20465;-51
2022/12/04 00:11:49;;;;;;;8.90;8.30;;;19.50;53.60;;;;;;5031282;28;20445;-51
2022/12/04 00:14:17;;;;;;;9.10;8.57;;;19.50;53.60;;;;;;5031908;28;20897;-59
2022/12/04 00:16:44;;;;;;;9.93;9.17;;;19.50;53.60;;;;;;5036787;28;20449;-58
2022/12/04 00:19:11;;;;;;;9.10;8.60;;;19.50;53.70;;;;;;5035481;28;20893;-55
2022/12/04 00:21:38;;;;;;;9.00;8.50;;;19.50;53.60;;;;;;5035359;28;20488;-59
2022/12/04 00:24:05;;;;;;;9.20;8.60;;;19.50;53.60;;;;;;5035906;28;20495;-59
2022/12/04 00:26:32;;;;;;;8.53;8.10;;;19.40;53.60;;;;;;5036226;28;20445;-57
2022/12/04 00:29:00;;;;;;;9.20;8.57;;;19.40;53.70;;;;;;5034313;28;20547;-52
2022/12/04 00:31:30;;;;;;;10.10;9.30;;;19.40;53.70;;;;;;5031433;28;20541;-49
2022/12/04 00:33:57;;;;;;;8.80;8.10;;;19.40;53.80;;;;;;5031569;28;20487;-49
2022/12/04 00:36:26;;;;;;;8.17;7.70;;;19.40;53.90;;;;;;5030938;28;20532;-49
2022/12/04 00:38:53;;;;;;;9.63;8.63;;;19.30;53.80;;;;;;5011397;28;20521;-49
2022/12/04 00:41:23;;;;;;;9.27;8.70;;;19.30;53.80;;;;;;5011584;28;21024;-49
2022/12/04 00:43:50;;;;;;;7.93;7.50;;;19.30;53.80;;;;;;5011583;28;20449;-51
2022/12/04 00:46:17;;;;;;;9.57;8.87;;;19.30;53.90;;;;;;5018813;28;20833;-49
2022/12/04 00:48:46;;;;;;;8.93;8.40;;;19.30;53.90;;;;;;5031274;28;20469;-54
2022/12/04 00:51:15;;;;;;;8.10;7.60;;;19.30;53.90;;;;;;5031273;28;21000;-51
2022/12/04 00:53:42;;;;;;;9.33;8.70;;;19.30;53.90;;;;;;5031199;28;20473;-54
2022/12/04 00:56:11;;;;;;;9.70;8.90;;;19.30;53.90;;;;;;5030913;28;20480;-50
2022/12/04 00:58:38;;;;;;;9.00;8.57;;;19.30;54.00;;;;;;5031019;28;20461;-52
2022/12/04 01:01:07;;;;;;;8.00;7.57;;;19.30;54.00;;;;;;5030931;28;20459;-50
2022/12/04 01:03:34;;;;;;;7.90;7.50;;;19.30;54.00;;;;;;5031117;28;20516;-54
2022/12/04 01:06:03;;;;;;;8.40;7.80;;;19.30;54.00;;;;;;5030850;28;20532;-49
2022/12/04 01:08:29;;;;;;;9.57;8.83;;;19.30;54.00;;;;;;5031165;28;20544;-51
2022/12/04 01:10:56;;;;;;;8.57;8.17;;;19.30;54.00;;;;;;5030834;28;20862;-52
2022/12/04 01:13:24;;;;;;;7.97;7.57;;;19.30;54.10;;;;;;5031032;28;20451;-49
2022/12/04 01:15:51;;;;;;;8.53;8.03;;;19.20;54.00;;;;;;5030808;28;20904;-50
2022/12/04 01:18:18;;;;;;;9.30;8.80;;;19.20;54.00;;;;;;5031049;28;20484;-54
2022/12/04 01:20:48;;;;;;;8.70;8.20;;;19.20;54.00;;;;;;5030751;28;20536;-50
2022/12/04 01:23:17;;;;;;;8.47;7.97;;;19.20;54.00;;;;;;5031486;28;20819;-50
2022/12/04 01:25:51;;;;;;;8.57;7.97;;;19.20;54.00;;;;;;5034162;28;20858;-53
2022/12/04 01:28:18;;;;;;;8.33;7.83;;;19.20;54.00;;;;;;5034640;28;20451;-51
2022/12/04 01:30:45;;;;;;;9.33;8.73;;;19.20;54.00;;;;;;5034404;28;20544;-53
2022/12/04 01:33:12;;;;;;;8.97;8.47;;;19.20;54.00;;;;;;5035713;28;20532;-53
2022/12/04 01:35:39;;;;;;;7.90;7.50;;;19.20;54.00;;;;;;5034733;28;20476;-53
2022/12/04 01:38:06;;;;;;;8.10;7.80;;;19.20;54.00;;;;;;5034586;28;20532;-52
2022/12/04 01:40:34;;;;;;;8.43;7.93;;;19.20;53.90;;;;;;5034827;28;20548;-54
2022/12/04 01:43:01;;;;;;;7.50;7.10;;;19.20;54.00;;;;;;5034258;28;20532;-55
2022/12/04 01:45:41;;;;;;;8.87;8.27;;;19.10;53.80;;;;;;5034203;28;20540;-53
2022/12/04 01:48:17;;;;;;;8.57;8.07;;;19.10;53.90;;;;;;5034988;28;20528;-55
2022/12/04 01:50:45;;;;;;;9.07;8.27;;;19.10;53.90;;;;;;5035486;28;20551;-55
2022/12/04 01:53:13;;;;;;;8.93;8.40;;;19.10;53.90;;;;;;5035407;28;20449;-55
2022/12/04 01:55:42;;;;;;;9.37;8.70;;;19.10;54.50;;;;;;5035224;28;20512;-56
2022/12/04 01:58:10;;;;;;;7.93;7.53;;;19.10;53.90;;;;;;5034905;28;20966;-57
2022/12/04 02:00:37;;;;;;;8.37;7.87;;;19.10;54.50;;;;;;5038924;28;20476;-54
2022/12/04 02:03:04;;;;;;;8.23;7.77;;;19.10;54.00;;;;;;5042724;28;20499;-50
2022/12/04 02:05:31;;;;;;;8.70;8.13;;;19.10;54.00;;;;;;5033556;28;20567;-54
2022/12/04 02:08:04;;;;;;;8.80;8.30;;;19.10;54.00;;;;;;5033943;28;20504;-55
2022/12/04 02:10:41;;;;;;;8.40;7.90;;;19.10;53.90;;;;;;5033503;28;20474;-49
2022/12/04 02:13:16;;;;;;;8.10;7.70;;;19.00;53.90;;;;;;5033726;28;20917;-52
2022/12/04 02:15:52;;;;;;;9.17;8.57;;;19.00;53.90;;;;;;5033384;28;20988;-50
2022/12/04 02:18:29;;;;;;;9.30;8.60;;;19.00;53.90;;;;;;5033537;28;20476;-52
2022/12/04 02:21:05;;;;;;;8.93;8.23;;;19.00;53.90;;;;;;5033350;28;20524;-51
2022/12/04 02:23:45;;;;;;;8.73;8.20;;;19.00;54.00;;;;;;5033286;28;20524;-49
2022/12/04 02:26:28;;;;;;;9.47;8.77;;;19.00;54.00;;;;;;5033377;28;20437;-50
2022/12/04 02:29:02;;;;;;;8.83;8.13;;;18.90;54.00;;;;;;5033439;28;20465;-49
2022/12/04 02:31:33;;;;;;;8.60;8.17;;;19.00;54.10;;;;;;5033264;28;20460;-50
2022/12/04 02:34:05;;;;;;;8.67;8.17;;;18.90;54.10;;;;;;5032939;28;20455;-51
2022/12/04 02:36:39;;;;;;;8.03;7.43;;;18.90;54.60;;;;;;5033140;28;20477;-49
2022/12/04 02:39:12;;;;;;;8.80;8.13;;;18.90;54.10;;;;;;5032909;28;20473;-52
2022/12/04 02:41:43;;;;;;;8.10;7.60;;;19.00;54.20;;;;;;5032995;28;20536;-50
2022/12/04 02:44:16;;;;;;;7.63;7.30;;;18.90;54.10;;;;;;5040381;28;20449;-54
2022/12/04 02:46:47;;;;;;;8.80;8.13;;;18.90;54.60;;;;;;5041464;28;20472;-57
2022/12/04 02:49:19;;;;;;;9.03;8.33;;;18.90;54.00;;;;;;5040041;28;20533;-59
2022/12/04 02:51:48;;;;;;;8.70;8.13;;;18.90;54.10;;;;;;5040281;28;20459;-60
2022/12/04 02:54:21;;;;;;;8.03;7.63;;;18.90;54.10;;;;;;5040685;28;20959;-59
2022/12/04 02:56:51;;;;;;;8.63;8.10;;;18.90;54.10;;;;;;5040568;28;20505;-59
2022/12/04 02:59:25;;;;;;;9.43;8.73;;;18.90;54.10;;;;;;5039414;28;20899;-58
2022/12/04 03:01:57;;;;;;;9.07;8.43;;;18.90;54.10;;;;;;5039588;28;20460;-58
2022/12/04 03:04:27;;;;;;;9.23;8.43;;;18.90;54.10;;;;;;5038518;28;20449;-59
2022/12/04 03:06:57;;;;;;;9.13;8.50;;;18.90;54.10;;;;;;5037320;28;20525;-59
2022/12/04 03:09:30;;;;;;;7.80;7.40;;;18.90;54.10;;;;;;5037617;28;20863;-59
2022/12/04 03:12:04;;;;;;;9.47;8.67;;;18.90;54.20;;;;;;5019547;28;20454;-54
2022/12/04 03:14:36;;;;;;;8.97;8.37;;;18.90;54.10;;;;;;5019669;28;20477;-55
2022/12/04 03:17:08;;;;;;;8.70;8.20;;;18.90;54.20;;;;;;5019479;28;20526;-57
2022/12/04 03:19:40;;;;;;;9.83;8.97;;;18.90;54.10;;;;;;5028437;28;20896;-59
2022/12/04 03:22:11;;;;;;;8.63;8.13;;;18.90;54.10;;;;;;5037672;28;20441;-54
2022/12/04 03:24:41;;;;;;;8.40;7.90;;;18.90;54.10;;;;;;5037157;28;20531;-56
2022/12/04 03:27:12;;;;;;;8.63;8.03;;;18.80;54.10;;;;;;5038118;28;20542;-55
2022/12/04 03:29:44;;;;;;;9.40;8.70;;;18.80;54.10;;;;;;5037366;28;20560;-58
2022/12/04 03:32:15;;;;;;;9.90;9.20;;;18.80;54.00;;;;;;5038356;28;20528;-59
2022/12/04 03:34:51;;;;;;;9.00;8.50;;;18.80;54.10;;;;;;5039356;28;20889;-57
2022/12/04 03:37:22;;;;;;;8.50;8.00;;;18.80;54.10;;;;;;5040308;28;20829;-55
2022/12/04 03:39:57;;;;;;;8.40;7.90;;;18.80;54.10;;;;;;5039510;28;20568;-58
2022/12/04 03:42:27;;;;;;;9.30;8.70;;;18.80;54.10;;;;;;5038565;28;20472;-54
2022/12/04 03:45:01;;;;;;;8.97;8.47;;;18.80;54.10;;;;;;5039347;28;20870;-54
2022/12/04 03:47:35;;;;;;;8.20;7.80;;;18.80;54.10;;;;;;5038132;28;20449;-58
2022/12/04 03:50:07;;;;;;;8.93;8.33;;;18.80;54.60;;;;;;5037426;28;20557;-57
2022/12/04 03:52:42;;;;;;;9.23;8.63;;;18.80;54.10;;;;;;5037875;28;20518;-57
2022/12/04 03:55:19;;;;;;;8.90;8.30;;;18.80;54.10;;;;;;5038688;28;20576;-59
2022/12/04 03:57:49;;;;;;;8.63;8.10;;;18.80;54.10;;;;;;5038890;28;20540;-59
2022/12/04 04:00:21;;;;;;;8.77;8.27;;;18.80;54.10;;;;;;5037820;28;20543;-59
2022/12/04 04:02:56;;;;;;;8.73;8.13;;;18.80;54.20;;;;;;5037263;28;20448;-49
2022/12/04 04:05:26;;;;;;;9.70;8.90;;;18.70;54.20;;;;;;5031838;28;20511;-50
2022/12/04 04:07:55;;;;;;;8.53;8.13;;;18.70;54.20;;;;;;5031979;28;20452;-54
2022/12/04 04:10:25;;;;;;;8.57;7.93;;;18.70;54.20;;;;;;5031041;28;20805;-49
2022/12/04 04:24:17;;;;;;;9.10;8.37;;;18.70;54.20;;;;;;5000923;28;20489;-49
2022/12/04 04:26:46;;;;;;;8.57;8.03;;;18.70;54.30;;;;;;5031580;28;20481;-50
2022/12/04 04:29:13;;;;;;;9.30;8.60;;;18.70;54.30;;;;;;5030697;28;20519;-50
2022/12/04 04:31:46;;;;;;;8.97;8.30;;;18.70;54.30;;;;;;5031066;28;20534;-50
2022/12/04 04:34:20;;;;;;;9.00;8.50;;;18.70;54.30;;;;;;5031408;28;20448;-54
2022/12/04 04:36:54;;;;;;;9.57;8.87;;;18.70;54.30;;;;;;5031644;28;20484;-49
2022/12/04 04:39:30;;;;;;;8.03;7.53;;;18.70;54.30;;;;;;5030812;28;20567;-51
2022/12/04 04:42:01;;;;;;;10.10;8.40;;;18.70;54.40;;;;;;5031613;28;20472;-50
2022/12/04 04:44:37;;;;;;;9.80;9.10;;;18.70;54.20;;;;;;5031289;28;20528;-51
2022/12/04 04:47:11;;;;;;;8.87;8.10;;;18.70;54.20;;;;;;5031511;28;20803;-51
2022/12/04 04:49:40;;;;;;;8.73;8.13;;;18.70;54.30;;;;;;5030919;28;20469;-49
2022/12/04 04:52:08;;;;;;;9.33;8.83;;;18.70;54.20;;;;;;5031062;28;20874;-51
2022/12/04 04:54:37;;;;;;;8.37;7.87;;;18.70;54.20;;;;;;5031367;28;20523;-49
2022/12/04 04:57:04;;;;;;;8.63;8.10;;;18.70;54.20;;;;;;5031195;28;20572;-49
2022/12/04 04:59:30;;;;;;;8.90;8.30;;;18.70;54.20;;;;;;5033269;28;20473;-49
2022/12/04 05:01:58;;;;;;;8.40;7.90;;;18.70;54.20;;;;;;5035065;28;20447;-49
2022/12/04 05:04:26;;;;;;;9.07;8.53;;;18.70;54.30;;;;;;5035000;28;20445;-49
2022/12/04 05:06:53;;;;;;;8.73;8.03;;;18.60;54.20;;;;;;5034636;28;20477;-49
2022/12/04 05:09:20;;;;;;;9.10;8.60;;;18.60;54.20;;;;;;5034836;28;20902;-49
2022/12/04 05:11:47;;;;;;;9.27;8.67;;;18.60;54.20;;;;;;5034852;28;20487;-50
2022/12/04 05:14:13;;;;;;;8.83;8.03;;;18.60;54.20;;;;;;5034772;28;20820;-49
2022/12/04 05:16:41;;;;;;;8.23;7.83;;;18.60;54.20;;;;;;5034679;28;20492;-53
2022/12/04 05:21:55;;;;;;;8.37;7.90;;;18.60;54.20;;;;;;5034986;28;20420;-49
2022/12/04 05:24:22;;;;;;;8.60;8.10;;;18.60;54.20;;;;;;5034931;28;20452;-49
2022/12/04 05:26:49;;;;;;;8.27;7.77;;;18.60;54.20;;;;;;5034130;28;20444;-51
2022/12/04 05:29:16;;;;;;;8.50;7.90;;;18.60;54.20;;;;;;5036656;28;20919;-58
2022/12/04 05:31:43;;;;;;;8.77;8.23;;;18.60;54.20;;;;;;5038626;28;20445;-58
2022/12/04 05:34:10;;;;;;;8.90;8.50;;;18.60;54.20;;;;;;5037714;28;20512;-59
2022/12/04 05:36:37;;;;;;;9.20;8.53;;;18.60;54.20;;;;;;5037531;28;21125;-56
2022/12/04 05:39:05;;;;;;;9.23;8.70;;;18.60;54.20;;;;;;5037694;28;20477;-56
2022/12/04 05:41:32;;;;;;;8.60;8.13;;;18.60;54.10;;;;;;5037280;28;20456;-55
2022/12/04 05:43:59;;;;;;;8.40;7.90;;;18.60;54.10;;;;;;5037565;28;20445;-56
2022/12/04 05:46:26;;;;;;;8.13;7.63;;;18.60;54.10;;;;;;5038402;28;20544;-59
2022/12/04 05:48:53;;;;;;;8.40;7.87;;;18.60;54.10;;;;;;5037101;28;20457;-56
2022/12/04 05:51:19;;;;;;;9.17;8.57;;;18.60;54.10;;;;;;5037979;28;20539;-58
2022/12/04 05:53:46;;;;;;;8.10;7.70;;;18.60;54.00;;;;;;5038427;28;20445;-60
2022/12/04 05:56:14;;;;;;;9.80;9.03;;;18.60;54.00;;;;;;5037229;28;20547;-58
2022/12/04 05:58:41;;;;;;;7.57;7.17;;;18.60;54.10;;;;;;5037087;28;20555;-55
2022/12/04 06:01:10;;;;;;;8.47;7.97;;;18.60;54.00;;;;;;5037506;28;20964;-56
2022/12/04 06:03:37;;;;;;;7.60;7.20;;;18.50;54.00;;;;;;5037464;28;20528;-59
2022/12/04 06:06:04;;;;;;;8.03;7.53;;;18.60;54.00;;;;;;5036190;28;20535;-57
2022/12/04 06:08:31;;;;;;;8.63;8.03;;;18.50;53.90;;;;;;5033726;28;20476;-59
2022/12/04 06:10:58;;;;;;;8.07;7.57;;;18.50;54.00;;;;;;5033077;28;20476;-53
2022/12/04 06:13:26;;;;;;;8.07;7.53;;;18.50;54.00;;;;;;5033596;28;20445;-54
2022/12/04 06:15:53;;;;;;;9.70;8.90;;;18.50;54.00;;;;;;5033050;28;20503;-56
2022/12/04 06:18:20;;;;;;;8.03;7.63;;;18.50;54.00;;;;;;5033609;28;20429;-53
2022/12/04 06:20:47;;;;;;;9.57;8.97;;;18.50;54.00;;;;;;5033328;28;20457;-55
2022/12/04 06:23:14;;;;;;;8.53;8.03;;;18.50;54.00;;;;;;5033474;28;20457;-53
2022/12/04 06:25:41;;;;;;;10.47;9.87;;;18.50;54.10;;;;;;5033250;28;20449;-58
2022/12/04 06:28:07;;;;;;;8.97;8.47;;;18.50;54.10;;;;;;5033632;28;20528;-60
2022/12/04 06:30:36;;;;;;;8.33;7.83;;;18.50;54.10;;;;;;5033168;28;20448;-58
2022/12/04 06:33:03;;;;;;;8.93;8.43;;;18.50;54.10;;;;;;5033460;28;20532;-60
2022/12/04 06:35:29;;;;;;;8.30;7.80;;;18.50;54.10;;;;;;5032755;28;20548;-56
2022/12/04 06:37:56;;;;;;;9.10;8.53;;;18.50;54.20;;;;;;5033135;28;20485;-56
2022/12/04 06:40:23;;;;;;;8.83;8.27;;;18.50;54.20;;;;;;5033095;28;20517;-56
2022/12/04 06:42:51;;;;;;;8.87;8.40;;;18.50;54.20;;;;;;5033163;28;20824;-55
2022/12/04 06:45:18;;;;;;;9.30;8.80;;;18.50;54.20;;;;;;5033153;28;20449;-54
2022/12/04 06:47:46;;;;;;;8.27;7.87;;;18.50;54.20;;;;;;5032961;28;20480;-55
2022/12/04 06:50:13;;;;;;;8.47;8.00;;;18.50;54.20;;;;;;5032890;28;20496;-56
2022/12/04 06:52:40;;;;;;;9.20;8.70;;;18.50;54.20;;;;;;5033027;28;20811;-59
2022/12/04 06:55:07;;;;;;;7.90;7.50;;;18.50;54.70;;;;;;5032660;28;20488;-58
2022/12/04 06:57:34;;;;;;;9.20;8.67;;;18.50;54.20;;;;;;5032789;28;20484;-60
2022/12/04 07:00:01;;;;;;;9.73;9.13;;;18.50;54.20;;;;;;5032585;28;20466;-61
2022/12/04 07:02:28;;;;;;;7.60;7.20;;;18.50;54.20;;;;;;5032604;28;20536;-54
2022/12/04 07:04:56;;;;;;;9.27;8.67;;;18.50;54.20;;;;;;5032469;28;20535;-54
2022/12/04 07:07:23;;;;;;;7.47;7.00;;;18.50;54.20;;;;;;5032732;28;20448;-54
2022/12/04 07:09:50;;;;;;;8.40;8.00;;;18.50;54.10;;;;;;5032446;28;20493;-52
2022/12/04 07:12:17;;;;;;;9.70;9.00;;;18.60;54.10;;;;;;5032222;28;20441;-59
2022/12/04 07:14:44;;;;;;;8.20;7.70;;;18.70;54.60;;;;;;5032596;28;20539;-56
2022/12/04 07:17:11;;;;;;;8.20;7.70;;;18.70;55.00;;;;;;5032471;28;20481;-53
2022/12/04 07:19:38;;;;;;;9.20;8.60;;;18.80;54.80;;;;;;5032472;28;20465;-60
2022/12/04 07:22:07;;;;;;;9.10;8.50;;;18.90;55.40;;;;;;5031313;28;20448;-50
2022/12/04 07:24:36;;;;;;;9.70;9.13;;;19.00;55.40;;;;;;5032239;28;20448;-50
2022/12/04 07:27:04;;;;;;;10.00;9.30;;;19.10;56.20;;;;;;5032616;28;20788;-53
2022/12/04 07:29:31;;;;;;;8.90;8.40;;;19.20;55.90;;;;;;5032040;28;20475;-60
2022/12/04 07:31:58;;;;;;;8.40;7.73;;;19.30;55.20;;;;;;5032367;28;20449;-53
2022/12/04 07:34:25;;;;;;;7.83;7.43;;;19.30;54.70;;;;;;5032011;28;20444;-63
2022/12/04 07:36:52;;;;;;;8.23;7.80;;;19.40;54.60;;;;;;5032032;28;21012;-58
2022/12/04 07:39:20;;;;;;;8.10;7.70;;;19.40;54.60;;;;;;5051275;22;20483;-54
2022/12/04 07:41:46;;;;;;;9.00;8.60;;;19.50;54.60;;;;;;5071645;28;20439;-54
2022/12/04 07:44:13;;;;;;;9.13;8.60;;;19.60;54.20;;;;;;5053945;28;20815;-54
2022/12/04 07:46:40;;;;;;;8.77;8.27;;;19.60;54.00;;;;;;5052119;28;20527;-61
2022/12/04 07:49:07;;;;;;;8.93;8.53;;;19.70;54.40;;;;;;5049543;28;20458;-52
2022/12/04 07:51:34;;;;;;;9.17;8.67;;;19.70;54.30;;;;;;5031988;28;20437;-52
2022/12/04 07:54:00;;;;;;;8.57;8.07;;;19.70;54.00;;;;;;5032236;28;20445;-58
2022/12/04 07:56:29;;;;;;;9.53;8.90;;;19.70;54.20;;;;;;5031766;28;20571;-59
2022/12/04 07:58:56;;;;;;;8.00;7.60;;;19.80;54.40;;;;;;5031410;28;20508;-60
2022/12/04 08:01:24;;;;;;;8.80;8.40;;;19.80;54.20;;;;;;5032241;28;20453;-59
2022/12/04 08:03:53;;;;;;;8.53;8.10;;;19.80;54.00;;;;;;5031680;28;20449;-58
2022/12/04 08:06:21;;;;;;;8.40;8.00;;;19.90;53.90;;;;;;5031852;28;20449;-59
2022/12/04 08:08:49;;;;;;;7.70;7.40;;;19.90;53.70;;;;;;5032125;28;20491;-63
2022/12/04 08:11:18;;;;;;;8.90;8.50;;;19.90;53.20;;;;;;5031810;28;20441;-59
2022/12/04 08:13:46;;;;;;;9.37;8.77;;;20.00;53.00;;;;;;5031486;28;20537;-59
2022/12/04 08:16:14;;;;;;;7.90;7.50;;;19.90;53.40;;;;;;5032176;28;20449;-55
2022/12/04 08:18:45;;;;;;;8.93;8.43;;;19.90;54.00;;;;;;5031562;28;20954;-60
2022/12/04 08:21:14;;;;;;;8.50;8.10;;;20.00;54.50;;;;;;5031578;28;20519;-58
2022/12/04 08:23:43;;;;;;;9.87;9.33;;;20.00;54.50;;;;;;5031129;28;20602;-60
2022/12/04 08:26:10;;;;;;;8.33;7.97;;;20.00;54.50;;;;;;5031400;28;20540;-57
2022/12/04 08:28:37;;;;;;;8.60;8.30;;;20.00;54.50;;;;;;5031527;28;20476;-57
2022/12/04 08:31:07;;;;;;;8.27;7.87;;;20.00;54.60;;;;;;5031161;28;20461;-57
2022/12/04 08:33:35;;;;;;;9.00;8.50;;;20.00;54.30;;;;;;5033483;28;20480;-60
2022/12/04 08:36:05;;;;;;;8.63;8.30;;;20.00;54.30;;;;;;5032183;28;20445;-56
2022/12/04 08:38:32;;;;;;;8.73;8.33;;;20.00;54.90;;;;;;5035164;28;20491;-56
2022/12/04 08:41:00;;;;;;;8.50;8.10;;;20.00;54.30;;;;;;5035396;28;20476;-59
2022/12/04 08:43:26;;;;;;;10.03;8.57;;;20.00;54.20;;;;;;5035556;28;20449;-60
2022/12/04 08:45:57;;;;;;;7.73;7.43;;;20.00;54.20;;;;;;5035576;28;20970;-57
2022/12/04 08:48:26;;;;;;;8.17;7.87;;;20.00;54.00;;;;;;5035568;28;20444;-56
2022/12/04 08:50:53;;;;;;;8.23;7.90;;;20.10;53.60;;;;;;5035302;28;20544;-60
2022/12/04 08:53:20;;;;;;;8.17;7.77;;;20.20;53.60;;;;;;5035332;28;20543;-60
2022/12/04 08:55:48;;;;;;;8.00;7.60;;;20.20;53.50;;;;;;5035421;28;20539;-59
2022/12/04 08:58:14;;;;;;;8.33;7.97;;;20.20;53.20;;;;;;5035471;28;21011;-59
2022/12/04 09:00:41;;;;;;;8.10;7.70;;;20.20;53.00;;;;;;5034905;28;20473;-59
2022/12/04 09:03:11;;;;;;;9.00;8.60;;;20.20;52.90;;;;;;5034937;28;20449;-57
2022/12/04 09:05:40;;;;;;;8.00;7.70;;;20.20;52.90;;;;;;5035064;28;20535;-59
2022/12/04 09:08:07;;;;;;;7.70;7.40;;;20.30;52.90;;;;;;5035051;28;20441;-55
2022/12/04 09:10:34;;;;;;;7.80;7.50;;;20.30;53.00;;;;;;5034735;28;21047;-58
2022/12/04 09:13:01;;;;;;;8.10;7.73;;;20.20;52.80;;;;;;5034816;28;20472;-57
2022/12/04 09:15:28;;;;;;;8.20;7.83;;;20.20;52.70;;;;;;5035152;28;20477;-60
2022/12/04 09:17:55;;;;;;;8.53;8.17;;;20.20;52.70;;;;;;5034814;28;20598;-57
2022/12/04 09:20:21;;;;;;;9.10;8.67;;;20.20;52.80;;;;;;5034696;28;20830;-60
2022/12/04 09:22:50;;;;;;;8.17;7.83;;;20.20;52.80;;;;;;5034807;28;20989;-56
2022/12/04 09:25:17;;;;;;;8.87;8.37;;;20.20;53.20;;;;;;5035000;28;21047;-55
2022/12/04 09:27:44;;;;;;;8.10;7.80;;;20.20;52.60;;;;;;5034972;28;20520;-60
2022/12/04 09:30:12;;;;;;;8.80;8.40;;;20.20;52.60;;;;;;5034829;28;20685;-58
2022/12/04 09:32:39;;;;;;;7.83;7.53;;;20.30;52.60;;;;;;5034653;28;20535;-60
2022/12/04 09:35:07;;;;;;;8.20;7.90;;;20.30;52.30;;;;;;5035372;28;20447;-61
2022/12/04 09:37:35;;;;;;;7.60;7.30;;;20.30;52.10;;;;;;5034969;28;20512;-63
2022/12/04 09:40:04;;;;;;;8.53;8.13;;;20.30;52.00;;;;;;5034493;28;20897;-60
2022/12/04 09:42:45;;;;;;;8.63;8.23;;;20.30;51.90;;;;;;5034613;28;20455;-56
2022/12/04 09:45:17;;;;;;;8.93;8.53;;;20.20;51.70;;;;;;5033490;28;20541;-61
2022/12/04 09:47:47;;;;;;;8.20;7.90;;;20.30;51.80;;;;;;5035517;28;20480;-64
2022/12/04 09:50:20;;;;;;;7.90;7.57;;;20.30;52.00;;;;;;5035484;28;21064;-63
2022/12/04 09:52:54;;;;;;;7.70;7.50;;;20.30;52.00;;;;;;5017058;28;20477;-63
2022/12/04 09:55:27;;;;;;;8.13;7.83;;;20.40;52.00;;;;;;5021970;28;20444;-59
2022/12/04 09:57:58;;;;;;;8.00;7.70;;;20.40;51.80;;;;;;5015421;28;20568;-58
2022/12/04 10:00:26;;;;;;;8.13;7.83;;;20.50;52.60;;;;;;5016127;28;20459;-60
2022/12/04 10:02:59;;;;;;;7.63;7.33;;;20.70;52.60;;;;;;5038580;28;20465;-59
2022/12/04 10:05:42;;;;;;;8.00;7.70;;;20.80;52.30;;;;;;5037189;28;20871;-58
2022/12/04 10:08:15;;;;;;;8.20;7.70;;;20.90;52.60;;;;;;5037049;28;20525;-60
2022/12/04 10:10:49;;;;;;;8.90;8.50;;;21.00;53.30;;;;;;5034556;28;20546;-56
2022/12/04 10:13:34;;;;;;;8.47;8.17;;;21.10;52.90;;;;;;5033475;28;20548;-55
2022/12/04 10:16:11;;;;;;;8.93;8.47;;;21.20;52.90;;;;;;5034764;28;20544;-56
2022/12/04 10:18:47;;;;;;;10.67;10.33;;;21.30;52.50;;;;;;5034714;28;20871;-57
2022/12/04 10:21:31;;;;;;;10.90;10.50;;;21.30;52.70;;;;;;5033489;28;20494;-56
2022/12/04 10:24:15;;;;;;;11.20;10.80;;;21.50;53.00;;;;;;5013799;28;20446;-61
2022/12/04 10:26:47;;;;;;;11.30;10.90;;;21.50;52.20;;;;;;5013750;28;20485;-57
2022/12/04 10:29:20;;;;;;;12.20;11.33;;;21.60;52.50;;;;;;5013288;28;20508;-57
2022/12/04 10:31:49;;;;;;;11.40;11.00;;;21.70;52.10;;;;;;5020658;28;20457;-57
2022/12/04 10:34:19;;;;;;;11.53;11.10;;;21.80;51.80;;;;;;5033325;28;20446;-57
2022/12/04 10:36:51;;;;;;;10.60;10.20;;;21.90;51.60;;;;;;5033222;28;20445;-57
2022/12/04 10:39:24;;;;;;;10.73;10.33;;;21.90;51.30;;;;;;5032934;28;20520;-55
2022/12/04 10:41:58;;;;;;;10.83;10.43;;;22.00;51.10;;;;;;5032629;28;20536;-60
2022/12/04 10:44:25;;;;;;;10.47;10.17;;;22.10;51.00;;;;;;5033422;28;20460;-61
2022/12/04 10:46:58;;;;;;;10.27;9.87;;;22.10;51.00;;;;;;5033114;28;20467;-56
2022/12/04 10:49:27;;;;;;;10.70;10.30;;;22.20;51.50;;;;;;5032877;28;20472;-63
2022/12/04 10:51:54;;;;;;;10.80;10.40;;;22.30;51.40;;;;;;5032797;28;20441;-61
2022/12/04 10:54:25;;;;;;;10.93;10.53;;;22.40;51.10;;;;;;5033200;28;20445;-61
2022/12/04 10:56:55;;;;;;;10.80;10.40;;;22.50;50.70;;;;;;5032791;28;20548;-60
2022/12/04 10:59:22;;;;;;;11.03;10.57;;;22.50;51.00;;;;;;5032583;28;20551;-58
2022/12/04 11:01:50;;;;;;;11.13;10.73;;;22.50;50.30;;;;;;5032415;28;20481;-56
2022/12/04 11:04:23;;;;;;;10.97;10.57;;;22.60;50.20;;;;;;5032788;28;20441;-56
2022/12/04 11:06:51;;;;;;;11.80;11.30;;;22.60;50.10;;;;;;5032720;28;20891;-59
2022/12/04 11:09:24;;;;;;;11.30;10.90;;;22.70;50.10;;;;;;5032416;28;20503;-58
2022/12/04 11:11:53;;;;;;;11.10;10.70;;;22.70;50.10;;;;;;5032408;28;20476;-57
2022/12/04 11:14:22;;;;;;;12.03;11.60;;;22.80;49.90;;;;;;5032330;28;20527;-57
2022/12/04 11:16:59;;;;;;;11.53;11.10;;;22.80;49.90;;;;;;5032644;28;20449;-53
2022/12/04 11:19:28;;;;;;;11.57;11.17;;;22.90;50.10;;;;;;5032287;28;20493;-59
2022/12/04 11:21:56;;;;;;;11.03;10.63;;;22.90;49.80;;;;;;5032144;28;20878;-59
2022/12/04 11:24:26;;;;;;;12.23;11.73;;;22.90;49.60;;;;;;5032662;28;20791;-60
2022/12/04 11:26:55;;;;;;;13.87;13.07;;;22.90;49.00;;;;;;5032474;28;20488;-64
2022/12/04 11:29:31;;;;;;;29.33;25.37;;;23.00;49.60;;;;;;5032117;28;20536;-64
2022/12/04 11:31:58;;;;;;;15.70;14.60;;;23.10;50.00;;;;;;5032081;28;20437;-60
2022/12/04 11:34:33;;;;;;;15.33;14.13;;;23.10;49.90;;;;;;5032269;28;20473;-63
2022/12/04 11:37:00;;;;;;;16.70;15.17;;;23.20;49.50;;;;;;5032268;28;20474;-59
2022/12/04 11:39:32;;;;;;;16.27;15.20;;;23.20;49.30;;;;;;5031836;28;21007;-63
2022/12/04 11:42:03;;;;;;;14.63;13.53;;;23.20;49.30;;;;;;5032242;28;20441;-60
2022/12/04 11:44:32;;;;;;;29.70;24.40;;;23.30;48.80;;;;;;5032150;28;20481;-60
2022/12/04 11:47:01;;;;;;;25.40;21.13;;;23.30;48.80;;;;;;5032218;28;20443;-64
2022/12/04 11:49:30;;;;;;;21.67;19.40;;;23.30;49.10;;;;;;5031880;28;20979;-62
2022/12/04 11:52:11;;;;;;;19.87;17.93;;;23.40;49.00;;;;;;5031706;28;20448;-57
2022/12/04 11:54:50;;;;;;;19.03;17.13;;;23.40;48.80;;;;;;5032291;28;20473;-60
2022/12/04 11:57:29;;;;;;;18.63;16.87;;;23.40;49.10;;;;;;5031904;28;20444;-59
2022/12/04 12:00:04;;;;;;;18.37;16.53;;;23.40;49.40;;;;;;5031978;28;20509;-55
2022/12/04 12:02:57;;;;;;;41.83;31.37;;;23.30;48.50;;;;;;5031750;28;20449;-54
2022/12/04 12:05:53;;;;;;;16.90;15.23;;;23.30;48.80;;;;;;5031623;28;20933;-58
2022/12/04 12:08:29;;;;;;;27.13;24.27;;;23.30;48.60;;;;;;5031413;28;20524;-62
2022/12/04 12:11:04;;;;;;;27.40;24.50;;;23.30;48.40;;;;;;5031602;28;20463;-60
2022/12/04 12:13:42;;;;;;;24.50;22.03;;;23.40;48.70;;;;;;5031597;28;21184;-60
2022/12/04 12:16:17;;;;;;;25.40;22.90;;;23.40;48.80;;;;;;5031953;28;20475;-58
2022/12/04 12:18:58;;;;;;;28.10;23.47;;;23.40;48.70;;;;;;5031906;28;20571;-58
2022/12/04 12:21:26;;;;;;;23.53;21.00;;;23.40;49.00;;;;;;5031420;28;20445;-61
2022/12/04 12:24:19;;;;;;;20.90;18.83;;;23.40;48.90;;;;;;5031261;28;20452;-58
2022/12/04 12:26:54;;;;;;;21.73;17.77;;;23.40;48.60;;;;;;5031692;28;20991;-63
2022/12/04 12:29:36;;;;;;;21.70;18.20;;;23.40;49.00;;;;;;5031294;28;20464;-61
2022/12/04 12:32:27;;;;;;;19.57;17.57;;;23.40;48.50;;;;;;5031285;28;20449;-55
2022/12/04 12:34:54;;;;;;;18.33;16.73;;;23.40;48.20;;;;;;5031202;28;20467;-62
2022/12/04 12:37:26;;;;;;;18.40;16.87;;;23.50;48.20;;;;;;5031552;28;20514;-60
2022/12/04 12:40:00;;;;;;;17.90;16.20;;;23.40;48.10;;;;;;5031224;28;21062;-59
2022/12/04 12:42:34;;;;;;;17.03;15.17;;;23.40;48.30;;;;;;5031119;28;20547;-56
2022/12/04 12:45:07;;;;;;;18.07;16.30;;;23.40;48.10;;;;;;5031314;28;20469;-57
2022/12/04 12:47:41;;;;;;;16.20;14.70;;;23.50;48.10;;;;;;5032046;28;20516;-57
2022/12/04 12:50:15;;;;;;;16.27;14.80;;;23.50;48.30;;;;;;5031408;28;20465;-59
2022/12/04 12:52:47;;;;;;;16.40;14.70;;;23.50;48.50;;;;;;5031529;28;20452;-55
2022/12/04 12:55:18;;;;;;;15.30;14.20;;;23.50;48.00;;;;;;5031434;28;20878;-53
2022/12/04 12:57:49;;;;;;;15.30;14.20;;;23.50;47.80;;;;;;5031121;28;20484;-55
2022/12/04 13:00:20;;;;;;;14.97;13.67;;;23.60;48.40;;;;;;5031151;28;20883;-58
2022/12/04 13:02:51;;;;;;;15.13;13.73;;;23.60;48.30;;;;;;5031246;28;20449;-59
2022/12/04 13:05:24;;;;;;;16.13;14.73;;;23.60;48.30;;;;;;5031221;28;20449;-60
2022/12/04 13:08:01;;;;;;;14.30;13.03;;;23.60;48.60;;;;;;5031538;28;20532;-62
2022/12/04 13:10:33;;;;;;;14.77;13.57;;;23.70;48.20;;;;;;5031064;28;20503;-55
2022/12/04 13:13:05;;;;;;;15.87;14.67;;;23.70;48.40;;;;;;5031278;28;20524;-58